Time;durP1;ratioP1;P1;durP2;ratioP2;P2;SDS_P1;SDS_P2;PMS_P1;PMS_P2;Temp;Humidity;BMP_temperature;BMP_pressure;BME280_temperature;BME280_humidity;BME280_pressure;Samples;Min_cycle;Max_cycle;Signal;HPM_P1;HPM_P2
2023/06/20 00:02:13;;;;;;;7.28;4.82;;;;;;;15.54;70.61;94936.19;5069474;28;20021;-75
2023/06/20 00:04:39;;;;;;;6.85;4.93;;;;;;;15.58;70.43;94926.25;5069426;28;20025;-75
2023/06/20 00:07:04;;;;;;;5.90;4.90;;;;;;;15.58;70.71;94921.81;5071659;28;20452;-75
2023/06/20 00:09:30;;;;;;;6.88;4.88;;;;;;;15.59;70.77;94931.31;5052692;28;20037;-75
2023/06/20 00:11:55;;;;;;;5.97;4.88;;;;;;;15.54;70.78;94932.75;5052929;28;20032;-75
2023/06/20 00:14:20;;;;;;;7.22;5.35;;;;;;;15.42;70.82;94926.94;5055228;28;20051;-75
2023/06/20 00:16:46;;;;;;;6.40;5.38;;;;;;;15.49;71.31;94940.25;5069510;28;20033;-76
2023/06/20 00:19:11;;;;;;;7.22;5.25;;;;;;;15.43;71.13;94939.06;5069300;28;20028;-75
2023/06/20 00:21:39;;;;;;;6.20;4.93;;;;;;;15.34;71.02;94921.66;5070171;28;20059;-75
2023/06/20 00:24:09;;;;;;;8.65;5.30;;;;;;;15.47;70.78;94936.97;5072273;28;20494;-75
2023/06/20 00:26:37;;;;;;;7.30;5.80;;;;;;;15.45;70.86;94926.66;5091426;28;20456;-76
2023/06/20 00:29:03;;;;;;;6.10;5.30;;;;;;;15.46;71.05;94932.69;5071245;28;20497;-75
2023/06/20 00:31:28;;;;;;;7.75;5.15;;;;;;;15.35;71.38;94931.16;5087774;28;20032;-75
2023/06/20 00:33:54;;;;;;;6.50;5.50;;;;;;;15.32;71.15;94923.59;5082680;28;20028;-75
2023/06/20 00:36:25;;;;;;;6.47;5.20;;;;;;;15.30;71.70;94931.63;5052435;28;20048;-75
2023/06/20 00:38:50;;;;;;;;;;;;;;;15.32;71.70;94928.84;5073870;28;20028;-75
2023/06/20 00:41:16;;;;;;;7.45;5.40;;;;;;;15.31;71.40;94919.34;5080593;28;19927;-75
2023/06/20 00:43:41;;;;;;;6.38;5.50;;;;;;;15.27;71.96;94926.69;5069104;28;20033;-75
2023/06/20 00:46:06;;;;;;;7.05;5.30;;;;;;;15.32;71.40;94913.97;5069308;28;20561;-75
2023/06/20 00:48:32;;;;;;;6.93;5.13;;;;;;;15.28;71.61;94922.28;5071345;28;20028;-75
2023/06/20 00:50:57;;;;;;;7.53;5.32;;;;;;;15.44;71.12;94930.25;5090580;28;20408;-76
2023/06/20 00:53:23;;;;;;;8.23;5.07;;;;;;;15.47;70.92;94919.47;5089036;28;20039;-75
2023/06/20 00:55:48;;;;;;;6.07;5.38;;;;;;;15.23;71.47;94908.84;5089236;28;20043;-75
2023/06/20 00:58:13;;;;;;;5.88;5.20;;;;;;;15.23;71.68;94916.69;5075186;28;20025;-75
2023/06/20 01:00:39;;;;;;;6.15;5.50;;;;;;;15.34;71.13;94919.03;5042405;28;20040;-76
2023/06/20 01:03:06;;;;;;;8.02;5.40;;;;;;;15.44;71.06;94935.47;5072611;28;20031;-75
2023/06/20 01:05:31;;;;;;;6.75;5.15;;;;;;;15.40;70.97;94926.28;5072564;28;20090;-76
2023/06/20 01:07:58;;;;;;;6.97;5.53;;;;;;;15.33;70.87;94930.50;5078032;28;20032;-75
2023/06/20 01:10:44;;;;;;;6.20;5.57;;;;;;;15.20;71.21;94929.09;5092950;28;20032;-75
2023/06/20 01:13:28;;;;;;;6.40;5.30;;;;;;;15.25;70.89;94926.03;5074930;28;20032;-76
2023/06/20 01:16:20;;;;;;;7.15;5.60;;;;;;;15.14;71.42;94926.28;5087582;28;20032;-75
2023/06/20 01:18:57;;;;;;;6.00;5.40;;;;;;;15.17;71.40;94926.78;5073151;28;20115;-76
2023/06/20 01:21:31;;;;;;;8.65;5.60;;;;;;;14.96;71.75;94924.50;5079942;28;20541;-76
2023/06/20 01:24:16;;;;;;;7.10;5.82;;;;;;;15.04;71.52;94925.53;5072647;28;20032;-76
2023/06/20 01:26:48;;;;;;;10.68;5.95;;;;;;;15.10;71.85;94917.91;5064972;28;20035;-76
2023/06/20 01:29:16;;;;;;;7.57;5.43;;;;;;;15.13;72.06;94922.84;5068377;28;20024;-76
2023/06/20 01:31:50;;;;;;;10.07;5.35;;;;;;;15.00;72.32;94925.03;5079993;28;20029;-75
2023/06/20 01:34:18;;;;;;;6.30;5.60;;;;;;;15.04;72.12;94925.53;5051429;28;20528;-75
2023/06/20 01:36:49;;;;;;;6.88;5.10;;;;;;;14.99;72.01;94920.78;5068974;28;20467;-76
2023/06/20 01:39:17;;;;;;;7.05;4.85;;;;;;;15.06;72.22;94924.41;5051238;28;20040;-75
2023/06/20 01:41:43;;;;;;;7.15;5.45;;;;;;;14.93;72.03;94924.81;5071123;28;21082;-75
2023/06/20 01:44:12;;;;;;;6.50;5.57;;;;;;;14.79;72.26;94900.97;5071280;28;20525;-75
2023/06/20 01:46:38;;;;;;;9.50;5.82;;;;;;;14.96;71.92;94928.91;5085090;28;20039;-75
2023/06/20 01:49:03;;;;;;;6.53;5.57;;;;;;;15.08;71.22;94919.03;5070831;28;20056;-75
2023/06/20 01:51:29;;;;;;;6.85;5.78;;;;;;;15.05;71.54;94938.47;5071267;28;20031;-75
2023/06/20 01:53:54;;;;;;;8.18;6.10;;;;;;;15.13;71.61;94932.50;5068997;28;20032;-75
2023/06/20 01:56:19;;;;;;;6.82;5.28;;;;;;;15.09;71.33;94938.97;5066574;28;20036;-75
2023/06/20 01:58:45;;;;;;;7.85;5.88;;;;;;;15.12;71.06;94923.78;5070372;28;20034;-75
2023/06/20 02:01:10;;;;;;;6.95;5.50;;;;;;;15.02;71.97;94937.97;5070694;28;20121;-75
2023/06/20 02:03:36;;;;;;;7.47;6.68;;;;;;;14.89;73.79;94944.38;5087246;28;20507;-75
2023/06/20 02:06:01;;;;;;;7.95;7.03;;;;;;;14.85;74.19;94942.19;5055588;28;20085;-75
2023/06/20 02:08:27;;;;;;;8.65;6.78;;;;;;;14.70;74.40;94937.50;5066366;28;20047;-76
2023/06/20 02:10:52;;;;;;;7.70;6.55;;;;;;;14.82;74.26;94942.50;5085009;28;20070;-76
2023/06/20 02:13:21;;;;;;;8.27;6.97;;;;;;;14.66;75.06;94944.00;5054104;28;20067;-75
2023/06/20 02:15:47;;;;;;;8.30;6.63;;;;;;;14.72;74.91;94942.59;5068444;28;20040;-76
2023/06/20 02:18:13;;;;;;;8.82;6.90;;;;;;;14.55;75.32;94931.16;5085839;28;20089;-75
2023/06/20 02:20:38;;;;;;;8.18;6.72;;;;;;;14.69;74.17;94945.50;5087783;28;20085;-75
2023/06/20 02:23:06;;;;;;;7.30;6.50;;;;;;;14.44;75.25;94953.06;5066210;28;20105;-75
2023/06/20 02:25:33;;;;;;;11.35;7.47;;;;;;;14.26;76.14;94932.16;5052337;28;20473;-76
2023/06/20 02:27:59;;;;;;;10.13;6.90;;;;;;;14.26;75.75;94926.06;5070922;28;20039;-76
2023/06/20 02:30:26;;;;;;;8.32;5.88;;;;;;;14.29;75.55;94944.91;5069732;28;20097;-75
2023/06/20 02:32:52;;;;;;;7.35;5.82;;;;;;;14.03;75.73;94931.69;5052385;28;20031;-76
2023/06/20 02:35:18;;;;;;;8.48;7.50;;;;;;;14.12;76.58;94939.63;5082313;28;20037;-75
2023/06/20 02:37:43;;;;;;;7.95;7.13;;;;;;;14.14;77.14;94948.16;5087482;28;20043;-76
2023/06/20 02:40:09;;;;;;;7.97;7.15;;;;;;;14.31;76.81;94952.59;5050259;28;20029;-76
2023/06/20 02:42:35;;;;;;;10.85;7.15;;;;;;;14.12;77.38;94950.06;5085224;28;20316;-76
2023/06/20 02:45:00;;;;;;;12.48;7.05;;;;;;;13.95;77.19;94920.34;5067155;28;20510;-76
2023/06/20 02:47:39;;;;;;;8.65;6.10;;;;;;;14.15;75.57;94945.41;5068384;28;20043;-76
2023/06/20 02:50:10;;;;;;;7.93;6.18;;;;;;;14.20;75.02;94948.38;5085118;28;20048;-77
2023/06/20 02:53:02;;;;;;;6.55;5.40;;;;;;;14.27;74.56;94943.41;5068157;28;20409;-76
2023/06/20 02:55:35;;;;;;;6.75;5.70;;;;;;;14.18;74.75;94950.34;5068935;28;20136;-76
2023/06/20 02:58:01;;;;;;;5.95;5.30;;;;;;;14.28;74.08;94945.88;5088094;28;20111;-76
2023/06/20 03:00:26;;;;;;;7.43;5.82;;;;;;;14.27;73.95;94944.22;5069457;28;20039;-76
2023/06/20 03:03:13;;;;;;;7.03;5.97;;;;;;;14.35;74.39;94958.34;5051936;28;20025;-76
2023/06/20 03:05:42;;;;;;;6.15;5.03;;;;;;;14.34;73.67;94960.13;5050108;28;20100;-76
2023/06/20 03:08:07;;;;;;;6.97;5.88;;;;;;;14.38;73.40;94951.03;5070866;28;20043;-76
2023/06/20 03:10:33;;;;;;;6.75;5.90;;;;;;;14.42;73.55;94956.78;5085650;28;20040;-76
2023/06/20 03:12:59;;;;;;;8.05;6.60;;;;;;;14.46;75.07;94976.47;5052163;28;20036;-76
2023/06/20 03:15:24;;;;;;;9.27;8.20;;;;;;;14.36;76.91;94983.53;5068295;28;20111;-76
2023/06/20 03:17:50;;;;;;;10.52;8.75;;;;;;;14.49;77.15;94971.75;5069898;28;20024;-76
2023/06/20 03:20:15;;;;;;;13.68;9.48;;;;;;;14.66;77.72;94983.22;5048293;28;20086;-76
2023/06/20 03:22:41;;;;;;;14.55;8.98;;;;;;;14.53;77.47;94986.19;5066737;28;20047;-75
2023/06/20 03:25:06;;;;;;;11.30;9.18;;;;;;;14.33;78.48;94983.81;5083448;28;20028;-75
2023/06/20 03:27:32;;;;;;;8.93;8.00;;;;;;;14.61;77.59;94993.31;5068254;28;20032;-76
2023/06/20 03:30:03;;;;;;;9.07;7.35;;;;;;;14.63;77.35;95001.00;5069279;28;20039;-75
2023/06/20 03:32:29;;;;;;;8.82;7.65;;;;;;;14.75;77.12;94984.13;5069392;28;20042;-75
2023/06/20 03:34:54;;;;;;;9.07;7.28;;;;;;;14.81;76.37;94987.94;5066668;28;20030;-77
2023/06/20 03:37:19;;;;;;;7.85;6.90;;;;;;;14.96;76.67;95010.00;5048572;28;20024;-77
2023/06/20 03:39:45;;;;;;;9.18;8.02;;;;;;;15.01;76.01;95009.53;5061702;28;20094;-77
2023/06/20 03:42:10;;;;;;;13.18;9.88;;;;;;;15.08;76.18;95006.19;5060077;28;20024;-78
2023/06/20 03:44:36;;;;;;;8.57;7.68;;;;;;;15.10;75.70;94999.00;5049567;28;20028;-78
2023/06/20 03:47:01;;;;;;;9.32;7.20;;;;;;;14.98;75.39;94987.13;5084786;28;20521;-78
2023/06/20 03:49:26;;;;;;;18.05;8.07;;;;;;;14.85;76.59;95000.59;5069041;28;20442;-77
2023/06/20 03:51:52;;;;;;;8.70;7.28;;;;;;;14.88;76.24;94986.38;5080906;28;20032;-77
2023/06/20 03:54:17;;;;;;;8.35;6.07;;;;;;;15.37;73.48;95008.53;5068889;28;20105;-76
2023/06/20 03:56:43;;;;;;;11.70;7.90;;;;;;;15.30;74.79;95007.53;5084250;28;20028;-77
2023/06/20 03:59:08;;;;;;;11.32;8.48;;;;;;;15.31;74.66;95003.91;5069299;28;20395;-76
2023/06/20 04:01:33;;;;;;;10.10;7.88;;;;;;;15.29;74.85;94987.53;5052583;28;20032;-76
2023/06/20 04:03:59;;;;;;;10.15;8.02;;;;;;;15.55;74.78;95019.00;5086217;28;20043;-75
2023/06/20 04:06:30;;;;;;;9.68;8.00;;;;;;;15.56;74.58;95014.59;5066583;28;20040;-76
2023/06/20 04:08:55;;;;;;;8.88;7.32;;;;;;;16.28;73.01;94999.47;5082180;28;20038;-76
2023/06/20 04:11:21;;;;;;;9.02;7.82;;;;;;;17.04;69.98;94993.31;5067445;28;20434;-74
2023/06/20 04:13:46;;;;;;;10.70;8.27;;;;;;;17.78;66.97;95004.66;5085112;28;20024;-74
2023/06/20 04:16:12;;;;;;;10.02;7.22;;;;;;;18.55;64.36;94998.84;5080190;28;20060;-74
2023/06/20 04:18:37;;;;;;;7.15;6.40;;;;;;;19.36;61.50;95004.63;5084869;28;20035;-74
2023/06/20 04:21:02;;;;;;;6.90;5.35;;;;;;;19.23;56.97;94999.16;5086236;28;20452;-75
2023/06/20 04:23:28;;;;;;;8.70;6.93;;;;;;;19.28;59.23;94997.63;5082440;28;20036;-74
2023/06/20 04:25:53;;;;;;;9.15;7.38;;;;;;;20.14;57.73;94998.19;5046285;28;20101;-75
2023/06/20 04:28:19;;;;;;;11.38;8.23;;;;;;;20.70;56.38;94995.09;5067860;28;20043;-81
2023/06/20 04:30:44;;;;;;;10.35;7.80;;;;;;;21.13;54.68;94992.53;5059518;28;20043;-85
2023/06/20 04:33:10;;;;;;;8.75;7.25;;;;;;;21.61;53.55;94984.84;5078562;28;20099;-88
2023/06/20 04:35:35;;;;;;;8.70;7.68;;;;;;;21.95;52.89;94991.19;5081308;28;20513;-80
2023/06/20 04:38:03;;;;;;;9.25;8.05;;;;;;;21.86;53.15;94995.81;5084623;28;20058;-76
2023/06/20 04:40:29;;;;;;;10.77;7.80;;;;;;;21.71;53.68;94993.28;5084984;28;20035;-78
2023/06/20 04:42:54;;;;;;;12.25;7.30;;;;;;;21.37;54.40;94997.47;5083730;28;20067;-78
2023/06/20 04:45:19;;;;;;;16.25;8.27;;;;;;;21.09;55.63;94994.72;5087926;28;20040;-77
2023/06/20 04:47:50;;;;;;;12.63;8.15;;;;;;;20.77;56.75;95005.72;5090802;28;20517;-77
2023/06/20 04:50:15;;;;;;;10.88;8.07;;;;;;;20.31;57.64;94999.66;5077096;28;20267;-76
2023/06/20 04:52:41;;;;;;;9.52;8.25;;;;;;;20.12;58.18;95009.94;5072165;28;20078;-78
2023/06/20 04:55:06;;;;;;;12.38;7.65;;;;;;;19.90;58.23;95020.34;5071120;28;20094;-76
2023/06/20 04:57:32;;;;;;;11.10;8.18;;;;;;;20.02;58.72;95018.91;5054796;28;20558;-77
2023/06/20 04:59:58;;;;;;;10.43;8.27;;;;;;;20.04;58.51;95035.38;5071972;28;20115;-83
2023/06/20 05:02:24;;;;;;;11.90;8.27;;;;;;;19.76;58.96;95034.31;5084318;28;20028;-77
2023/06/20 05:04:49;;;;;;;10.40;8.65;;;;;;;19.60;60.34;95043.97;5056078;28;20040;-76
2023/06/20 05:07:15;;;;;;;11.77;8.38;;;;;;;19.48;60.21;95041.94;5073820;28;20055;-76
2023/06/20 05:09:40;;;;;;;12.13;8.57;;;;;;;19.57;60.47;95038.22;5055846;28;20233;-75
2023/06/20 05:12:06;;;;;;;13.07;8.13;;;;;;;19.93;59.49;95032.38;5071993;28;20082;-82
2023/06/20 05:14:31;;;;;;;8.85;7.55;;;;;;;19.96;59.95;95038.09;5061198;28;20056;-79
2023/06/20 05:16:57;;;;;;;9.13;8.02;;;;;;;20.24;60.16;95040.13;5086957;28;20119;-81
2023/06/20 05:19:22;;;;;;;9.20;7.72;;;;;;;20.24;59.74;95034.84;5074801;28;20028;-80
2023/06/20 05:21:48;;;;;;;8.85;7.78;;;;;;;20.37;59.74;95021.03;5071071;28;20048;-81
2023/06/20 05:24:14;;;;;;;9.82;8.07;;;;;;;20.20;59.98;95028.31;5053849;28;20029;-80
2023/06/20 05:26:39;;;;;;;9.50;8.15;;;;;;;20.40;59.40;95032.03;5070104;28;20425;-80
2023/06/20 05:29:05;;;;;;;13.93;7.93;;;;;;;20.50;58.27;94994.81;5054524;28;20391;-80
2023/06/20 05:31:30;;;;;;;9.15;7.63;;;;;;;20.93;57.82;95011.59;5072546;28;20441;-80
2023/06/20 05:33:56;;;;;;;11.13;7.82;;;;;;;20.74;57.69;94999.00;5054260;28;20017;-79
2023/06/20 05:36:21;;;;;;;11.23;7.43;;;;;;;20.88;57.72;95000.78;5055745;28;20090;-80
2023/06/20 05:38:48;;;;;;;8.65;6.05;;;;;;;20.67;55.90;95012.13;5072736;28;20024;-80
2023/06/20 05:41:16;;;;;;;9.02;5.90;;;;;;;20.62;58.26;95005.75;5055149;28;20028;-81
2023/06/20 05:43:41;;;;;;;7.22;6.20;;;;;;;20.39;60.16;95006.63;5053724;28;20123;-80
2023/06/20 05:46:07;;;;;;;10.20;6.28;;;;;;;20.75;57.91;94995.34;5054881;28;20395;-79
2023/06/20 05:48:34;;;;;;;8.15;6.10;;;;;;;20.78;56.77;94989.69;5055585;28;20186;-80
2023/06/20 05:51:00;;;;;;;7.45;6.50;;;;;;;20.80;58.35;95000.06;5072283;28;20049;-80
2023/06/20 05:53:28;;;;;;;11.23;7.38;;;;;;;20.53;58.48;94999.75;5072071;28;20077;-80
2023/06/20 05:55:54;;;;;;;11.60;7.45;;;;;;;20.69;58.55;95002.19;5055460;28;20110;-81
2023/06/20 05:58:20;;;;;;;10.25;7.40;;;;;;;20.80;57.60;95008.00;5073291;28;20025;-80
2023/06/20 06:00:46;;;;;;;9.52;7.15;;;;;;;20.79;58.65;95012.47;5055688;28;20541;-80
2023/06/20 06:03:14;;;;;;;14.13;8.27;;;;;;;20.86;58.11;95015.97;5073100;28;20469;-80
2023/06/20 06:05:40;;;;;;;15.32;8.02;;;;;;;20.92;58.49;95017.91;5055137;28;20048;-80
2023/06/20 06:08:06;;;;;;;9.90;8.77;;;;;;;20.59;59.80;95019.28;5073279;28;20098;-80
2023/06/20 06:10:32;;;;;;;11.68;8.52;;;;;;;20.34;61.29;95038.03;5071953;28;20571;-80
2023/06/20 06:12:57;;;;;;;11.70;8.73;;;;;;;20.68;60.48;95036.69;5071829;28;20029;-80
2023/06/20 06:15:23;;;;;;;9.00;8.05;;;;;;;20.70;60.08;95034.69;5071601;28;20462;-80
2023/06/20 06:17:48;;;;;;;10.70;7.97;;;;;;;20.69;59.04;95036.50;5071932;28;20422;-81
2023/06/20 06:20:17;;;;;;;10.57;8.10;;;;;;;20.90;58.39;95035.75;5071757;28;20502;-80
2023/06/20 06:22:43;;;;;;;9.82;8.10;;;;;;;20.95;58.01;95022.81;5055348;28;20036;-80
2023/06/20 06:25:08;;;;;;;11.77;7.68;;;;;;;21.12;56.88;95041.88;5054812;28;20025;-80
2023/06/20 06:27:34;;;;;;;10.77;7.95;;;;;;;21.34;57.05;95029.53;5071598;28;20028;-80
2023/06/20 06:30:00;;;;;;;9.55;7.88;;;;;;;21.36;57.16;95030.13;5054911;28;20486;-80
2023/06/20 06:32:27;;;;;;;12.52;8.07;;;;;;;21.31;56.19;95029.91;5054896;28;20035;-79
2023/06/20 06:34:53;;;;;;;9.32;7.32;;;;;;;21.86;54.90;95043.41;5054655;28;20037;-80
2023/06/20 06:37:19;;;;;;;7.85;7.00;;;;;;;22.33;54.06;95025.25;5054661;28;20032;-79
2023/06/20 06:39:44;;;;;;;9.32;6.82;;;;;;;22.32;54.78;95034.22;5071146;28;20040;-80
2023/06/20 06:42:09;;;;;;;8.15;7.30;;;;;;;22.18;55.13;95028.84;5071347;28;20039;-80
2023/06/20 06:44:35;;;;;;;10.73;7.55;;;;;;;22.27;54.58;95026.84;5054326;28;20029;-80
2023/06/20 06:47:01;;;;;;;7.97;6.82;;;;;;;22.62;53.52;95010.94;5072382;28;20024;-80
2023/06/20 06:49:27;;;;;;;8.43;7.30;;;;;;;21.98;55.15;95019.91;5071075;28;20032;-80
2023/06/20 06:51:52;;;;;;;9.60;7.00;;;;;;;22.32;53.52;94994.53;5070797;28;20036;-79
2023/06/20 06:54:18;;;;;;;11.02;7.20;;;;;;;22.73;52.58;95002.44;5072073;28;20052;-80
2023/06/20 06:56:43;;;;;;;9.68;6.30;;;;;;;22.97;53.17;95006.44;5072038;28;20082;-81
2023/06/20 06:59:08;;;;;;;9.60;6.95;;;;;;;22.83;52.47;95010.84;5070894;28;20043;-80
2023/06/20 07:01:34;;;;;;;7.22;6.53;;;;;;;23.28;51.02;94983.91;5070802;28;20032;-80
2023/06/20 07:03:59;;;;;;;9.98;6.72;;;;;;;23.68;49.49;95003.31;5070764;28;20028;-80
2023/06/20 07:06:25;;;;;;;7.13;6.38;;;;;;;23.83;49.89;95001.31;5070882;28;20029;-80
2023/06/20 07:08:52;;;;;;;8.70;6.20;;;;;;;24.17;48.00;95001.28;5053993;28;20060;-81
2023/06/20 07:11:18;;;;;;;8.23;6.43;;;;;;;23.82;50.46;95007.63;5070438;28;20056;-80
2023/06/20 07:13:43;;;;;;;9.70;6.78;;;;;;;23.51;49.84;95008.19;5071754;28;20028;-80
2023/06/20 07:16:09;;;;;;;7.28;6.57;;;;;;;23.91;49.16;94992.31;5054368;28;20033;-80
2023/06/20 07:18:34;;;;;;;10.55;6.13;;;;;;;23.91;50.05;94962.34;5070951;28;20056;-80
2023/06/20 07:21:02;;;;;;;8.70;6.65;;;;;;;24.04;48.75;94992.31;5071962;28;20468;-81
2023/06/20 07:23:28;;;;;;;8.15;6.35;;;;;;;24.03;49.27;94993.31;5070671;28;20479;-78
2023/06/20 07:25:53;;;;;;;8.93;6.78;;;;;;;24.20;49.15;94995.53;5070799;28;20047;-80
2023/06/20 07:28:19;;;;;;;13.68;6.20;;;;;;;24.57;47.07;94979.94;5070555;28;20529;-79
2023/06/20 07:30:44;;;;;;;8.32;6.22;;;;;;;24.94;44.72;94991.66;5053600;28;20029;-79
2023/06/20 07:33:12;;;;;;;8.27;6.00;;;;;;;24.98;45.96;94991.00;5071680;28;20036;-79
2023/06/20 07:35:38;;;;;;;9.57;6.38;;;;;;;24.50;46.75;94991.41;5053633;28;20093;-79
2023/06/20 07:38:03;;;;;;;7.95;6.50;;;;;;;24.53;45.41;94991.00;5070407;28;20445;-78
2023/06/20 07:40:29;;;;;;;11.00;7.18;;;;;;;24.39;47.79;94991.22;5070155;28;20047;-83
2023/06/20 07:42:54;;;;;;;7.55;6.75;;;;;;;24.21;48.12;94979.44;5053695;28;20024;-81
2023/06/20 07:45:20;;;;;;;6.47;5.78;;;;;;;24.60;47.00;94996.31;5059710;28;20033;-81
2023/06/20 07:47:45;;;;;;;10.85;7.10;;;;;;;24.71;47.33;94994.81;5036445;28;20025;-78
2023/06/20 07:50:10;;;;;;;7.45;6.28;;;;;;;24.96;46.47;94990.44;5069856;28;20049;-78
2023/06/20 07:52:36;;;;;;;9.35;6.60;;;;;;;24.81;46.67;94992.53;5070467;28;20043;-78
2023/06/20 07:55:03;;;;;;;8.00;6.43;;;;;;;25.06;46.31;94994.47;5069416;28;20264;-78
2023/06/20 07:57:29;;;;;;;11.07;7.03;;;;;;;25.34;46.67;94992.28;5053685;28;20091;-78
2023/06/20 07:59:54;;;;;;;7.95;6.22;;;;;;;25.61;44.91;94987.59;5071172;28;20041;-78
2023/06/20 08:02:20;;;;;;;7.43;6.38;;;;;;;25.92;44.70;94985.16;5053410;28;20036;-78
2023/06/20 08:04:45;;;;;;;7.82;5.95;;;;;;;25.91;44.18;94997.63;5053440;28;20410;-78
2023/06/20 08:07:11;;;;;;;8.50;6.25;;;;;;;25.88;44.45;94987.41;5052728;28;20021;-79
2023/06/20 08:09:36;;;;;;;6.07;5.28;;;;;;;26.34;40.74;95009.31;5053110;28;20089;-79
2023/06/20 08:12:02;;;;;;;7.30;5.90;;;;;;;26.38;41.11;94997.97;5070015;28;20020;-79
2023/06/20 08:14:27;;;;;;;8.85;5.32;;;;;;;26.19;40.56;94991.84;5069700;28;20093;-79
2023/06/20 08:16:53;;;;;;;6.70;4.70;;;;;;;26.20;38.63;95001.47;5070116;28;20028;-79
2023/06/20 08:19:18;;;;;;;6.10;5.45;;;;;;;26.02;38.50;94996.09;5053033;28;20028;-79
2023/06/20 08:21:43;;;;;;;7.47;5.13;;;;;;;25.98;38.19;95002.88;5070233;28;20472;-80
2023/06/20 08:24:09;;;;;;;5.60;4.80;;;;;;;26.13;38.94;94973.25;5086857;28;20652;-79
2023/06/20 08:26:34;;;;;;;5.72;4.57;;;;;;;26.41;39.05;94996.72;5071761;28;20033;-78
2023/06/20 08:29:00;;;;;;;5.68;4.70;;;;;;;26.62;39.52;94993.66;5052911;28;20406;-78
2023/06/20 08:31:36;;;;;;;5.18;4.68;;;;;;;26.63;39.21;94997.13;5071578;28;20028;-79
2023/06/20 08:34:04;;;;;;;6.93;5.45;;;;;;;26.29;37.83;94989.47;5069852;28;20486;-78
2023/06/20 08:36:30;;;;;;;5.90;5.30;;;;;;;25.91;36.59;94986.16;5070075;28;20532;-78
2023/06/20 08:38:55;;;;;;;6.50;5.00;;;;;;;26.24;38.11;94989.34;5069522;28;20033;-79
2023/06/20 08:41:27;;;;;;;5.70;5.05;;;;;;;26.54;37.09;95001.97;5053259;28;20117;-79
2023/06/20 08:43:52;;;;;;;6.63;4.97;;;;;;;26.39;37.54;94998.81;5086330;28;20024;-79
2023/06/20 08:46:18;;;;;;;5.65;5.00;;;;;;;26.60;38.61;95001.06;5053363;28;20094;-79
2023/06/20 08:48:43;;;;;;;5.78;4.50;;;;;;;26.37;38.09;94996.38;5069119;28;20029;-79
2023/06/20 08:51:10;;;;;;;5.18;4.68;;;;;;;26.58;38.80;95011.16;5052968;28;20043;-79
2023/06/20 08:53:36;;;;;;;5.15;4.45;;;;;;;26.47;37.55;95019.84;5070833;28;20028;-80
2023/06/20 08:56:01;;;;;;;5.25;4.72;;;;;;;26.48;36.38;95022.28;5069811;28;20060;-79
2023/06/20 08:58:27;;;;;;;5.05;4.38;;;;;;;26.51;39.60;95024.50;5052738;28;20082;-79
2023/06/20 09:00:52;;;;;;;7.00;4.75;;;;;;;26.74;37.67;95020.38;5052970;28;20032;-79
2023/06/20 09:03:18;;;;;;;5.38;4.30;;;;;;;26.74;37.50;95012.38;5052751;28;20035;-78
2023/06/20 09:05:45;;;;;;;6.68;5.15;;;;;;;26.78;41.62;95010.09;5069590;28;20033;-79
2023/06/20 09:08:17;;;;;;;4.97;4.40;;;;;;;26.79;41.80;95009.88;5085988;28;20564;-79
2023/06/20 09:10:43;;;;;;;5.72;4.53;;;;;;;26.78;40.76;95005.59;5070335;28;20056;-79
2023/06/20 09:13:10;;;;;;;6.25;4.70;;;;;;;26.85;39.49;95010.81;5052811;28;20094;-79
2023/06/20 09:15:38;;;;;;;5.43;4.50;;;;;;;27.03;38.68;95005.47;5052879;28;20046;-79
2023/06/20 09:18:03;;;;;;;6.00;4.82;;;;;;;27.10;40.20;94995.53;5070674;28;20633;-79
2023/06/20 09:20:29;;;;;;;5.78;5.18;;;;;;;26.93;35.20;94989.19;5055833;28;20051;-78
2023/06/20 09:22:55;;;;;;;5.32;4.60;;;;;;;26.81;36.60;94975.03;5073079;28;20103;-79
2023/06/20 09:25:22;;;;;;;6.03;4.57;;;;;;;27.14;37.79;94993.25;5056091;28;20029;-79
2023/06/20 09:27:47;;;;;;;5.93;5.15;;;;;;;27.36;37.73;94996.25;5056221;28;20035;-78
2023/06/20 09:30:13;;;;;;;6.10;4.82;;;;;;;27.63;38.04;94994.81;5073112;28;20033;-79
2023/06/20 09:32:41;;;;;;;5.03;4.53;;;;;;;27.78;38.00;94986.38;5055976;28;20024;-79
2023/06/20 09:35:11;;;;;;;6.28;5.30;;;;;;;27.58;38.73;94986.69;5056388;28;20047;-79
2023/06/20 09:37:43;;;;;;;6.38;5.28;;;;;;;27.45;38.60;94975.41;5072762;28;20021;-79
2023/06/20 09:40:14;;;;;;;6.63;5.35;;;;;;;27.53;37.61;94981.22;5090337;28;20495;-80
2023/06/20 09:42:40;;;;;;;7.90;5.18;;;;;;;27.18;37.80;94947.25;5040249;28;20033;-80
2023/06/20 09:45:07;;;;;;;6.53;5.18;;;;;;;27.27;37.53;94981.59;5072437;28;20036;-80
2023/06/20 09:47:33;;;;;;;8.00;5.18;;;;;;;27.53;35.57;94983.09;5072469;28;20084;-79
2023/06/20 09:49:59;;;;;;;6.10;5.50;;;;;;;27.42;35.36;94971.34;5055645;28;20045;-80
2023/06/20 09:52:32;;;;;;;7.18;4.88;;;;;;;27.33;36.54;94965.53;5072305;28;20468;-77
2023/06/20 09:55:00;;;;;;;7.45;5.20;;;;;;;27.26;36.37;94975.47;5055684;28;20098;-78
2023/06/20 09:57:33;;;;;;;6.97;5.20;;;;;;;27.30;35.12;94967.81;5072519;28;20107;-77
2023/06/20 09:59:59;;;;;;;6.50;5.25;;;;;;;27.14;35.80;94963.94;5056369;28;20091;-77
2023/06/20 10:02:24;;;;;;;6.10;4.93;;;;;;;27.09;37.86;94964.59;5055460;28;20546;-77
2023/06/20 10:04:49;;;;;;;5.85;5.13;;;;;;;27.02;37.03;94971.84;5055431;28;20043;-78
2023/06/20 10:07:15;;;;;;;5.45;4.95;;;;;;;27.15;37.13;94974.34;5072396;28;20024;-77
2023/06/20 10:09:41;;;;;;;7.88;4.95;;;;;;;27.48;34.56;94974.94;5071895;28;20062;-78
2023/06/20 10:12:07;;;;;;;6.53;4.75;;;;;;;27.52;36.26;94981.44;5055315;28;20032;-77
2023/06/20 10:14:33;;;;;;;6.63;4.93;;;;;;;27.48;36.51;94975.75;5071789;28;20155;-78
2023/06/20 10:17:07;;;;;;;7.13;5.18;;;;;;;27.12;35.33;94966.81;5073194;28;20589;-78
2023/06/20 10:19:46;;;;;;;5.40;4.90;;;;;;;27.18;34.21;94970.44;5072192;28;20074;-78
2023/06/20 10:22:11;;;;;;;5.30;4.80;;;;;;;27.33;36.64;94983.34;5055100;28;20032;-77
2023/06/20 10:24:39;;;;;;;5.57;5.07;;;;;;;27.34;36.33;94979.66;5071601;28;20029;-78
2023/06/20 10:27:05;;;;;;;6.60;5.07;;;;;;;27.36;36.30;94978.41;5038354;28;20032;-77
2023/06/20 10:29:38;;;;;;;6.03;5.50;;;;;;;27.18;34.33;94971.25;5071191;28;20021;-78
2023/06/20 10:32:04;;;;;;;9.32;5.28;;;;;;;27.08;35.87;94965.66;5039327;28;20054;-78
2023/06/20 10:34:39;;;;;;;5.95;5.25;;;;;;;27.09;37.46;94977.91;5071374;28;20021;-78
2023/06/20 10:37:20;;;;;;;7.05;5.20;;;;;;;26.85;37.22;94976.19;5071308;28;20411;-78
2023/06/20 10:39:52;;;;;;;5.70;5.10;;;;;;;26.76;37.60;94959.69;5072442;28;20028;-79
2023/06/20 10:42:40;;;;;;;5.68;5.07;;;;;;;26.90;37.73;94968.34;5071302;28;20081;-78
2023/06/20 10:45:16;;;;;;;5.60;5.00;;;;;;;26.96;36.68;94962.09;5072449;28;20161;-78
2023/06/20 10:47:41;;;;;;;5.95;5.10;;;;;;;27.08;37.30;94960.31;5071208;28;20033;-78
2023/06/20 10:50:07;;;;;;;5.90;5.22;;;;;;;27.03;36.51;94957.50;5054537;28;20048;-78
2023/06/20 10:52:32;;;;;;;6.25;5.25;;;;;;;26.91;36.86;94961.97;5072513;28;20024;-79
2023/06/20 10:54:58;;;;;;;6.47;5.22;;;;;;;26.83;38.43;94960.44;5037726;28;20040;-79
2023/06/20 10:57:24;;;;;;;6.25;4.95;;;;;;;26.77;46.39;94963.16;5054696;28;20122;-78
2023/06/20 10:59:50;;;;;;;6.85;5.10;;;;;;;26.66;48.23;94944.25;5072638;28;20036;-79
2023/06/20 11:02:15;;;;;;;6.57;5.65;;;;;;;26.61;42.41;94946.78;5071033;28;20063;-78
2023/06/20 11:04:41;;;;;;;7.22;5.03;;;;;;;26.48;37.43;94950.38;5054739;28;20029;-79
2023/06/20 11:07:06;;;;;;;7.72;5.47;;;;;;;26.37;39.11;94947.63;5071213;28;20024;-79
2023/06/20 11:09:32;;;;;;;7.43;5.45;;;;;;;26.51;37.63;94946.47;5054147;28;20059;-79
2023/06/20 11:11:57;;;;;;;6.47;5.40;;;;;;;26.59;36.34;94934.72;5070340;28;20029;-79
2023/06/20 11:14:23;;;;;;;7.28;5.55;;;;;;;26.83;37.28;94941.78;5071727;28;20033;-78
2023/06/20 11:16:49;;;;;;;6.47;5.35;;;;;;;26.87;39.16;94947.47;5070574;28;20157;-78
2023/06/20 11:19:15;;;;;;;6.03;5.43;;;;;;;27.07;39.08;94940.00;5053961;28;20024;-79
2023/06/20 11:21:41;;;;;;;6.97;5.50;;;;;;;27.08;37.75;94933.66;5070625;28;20495;-81
2023/06/20 11:24:06;;;;;;;5.45;4.95;;;;;;;26.80;37.78;94936.91;5072133;28;20106;-81
2023/06/20 11:26:33;;;;;;;9.13;5.43;;;;;;;26.76;37.72;94930.38;5070867;28;20032;-81
2023/06/20 11:29:03;;;;;;;7.00;5.25;;;;;;;26.90;38.05;94931.03;5070678;28;20475;-82
2023/06/20 11:31:29;;;;;;;6.82;4.90;;;;;;;26.93;37.86;94931.38;5037395;28;20078;-82